Nezperce, ID (83543)

9:02 PM PST on November 28, 2014 (GMT -0800)
Highland Schools | Change Station
CLOSE
Current Station
Personal Weather Station
Location: Craigmont, ID
Elevation: 3783 ft
Nearby Weather Stations

Elev 3783 ft 46.24 °N, 116.47 °W | Updated 2 seconds ago

Overcast
Overcast
47.0 °F
Feels Like 38 °F
N
27.6
Wind Variable Wind from SW
Gusts 27.6 mph

Today
High -- | Low -- °F
--% Chance of Precip.
Yesterday
High -- | Low -- °F
Precip. -- in
7:03 AM 4:02 PM
Waxing Crescent, 47% visible
Pressure 29.44 in
Visibility 10.0 miles
Clouds Scattered Clouds 2900 ft
Mostly Cloudy 8000 ft
Overcast 10000 ft
Windchill 38 °F
Dew Point 35 °F
Humidity 64%
Rainfall 0.09 in
Snow Depth Not available.
UV 0 out of 12
Pollen .10 out of 12
Air Quality Not available.
Flu Activity Not available.
METAR KGIC 290455Z AUTO 21016G24KT 10SM SCT029 BKN080 OVC100 10/M01 A2944 RMK AO1 T00981006

More Conditions Fewer Conditions

Pressure 29.44 in
Visibility 10.0 miles
Clouds Scattered Clouds 2900 ft
Mostly Cloudy 8000 ft
Overcast 10000 ft
Windchill 38 °F
Dew Point 35 °F
Humidity 64%
Rainfall 0.09 in
Snow Depth Not available.
UV 0 out of 12
Pollen .10 out of 12
Air Quality Not available.
Flu Activity Not available.
METAR KGIC 290455Z AUTO 21016G24KT 10SM SCT029 BKN080 OVC100 10/M01 A2944 RMK AO1 T00981006

More Conditions Fewer Conditions

10-Day Weather Forecast

Almanac

Astronomy

Nov. 28, 2014 Rise Set
Actual Time
Civil Twilight
Nautical Twilight
Astronomical Twilight
Moon
Length of Visible Light
Length of Day
Tomorrow will be .
, % of the Moon is Illuminated

Today's Extremes

State Highs State Lows

Community

WunderPhotos

Upload Photos

1,774,417 photos uploaded!

WunderBlogs® & News

Nearby

Air Quality

  Air Quality AQ Index Pollutant
Not available.

Snow Depth

Station Depth Elevation

Earthquake Activity

City Distance Mag. Time & Date
Minimum magnitude displayed is 2.5.

Coastal Water Temperatures

Place Temperature

Nearby Weather Stations